Time;durP1;ratioP1;P1;durP2;ratioP2;P2;SDS_P1;SDS_P2;PMS_P1;PMS_P2;Temp;Humidity;BMP_temperature;BMP_pressure;BME280_temperature;BME280_humidity;BME280_pressure;Samples;Min_cycle;Max_cycle;Signal;HPM_P1;HPM_P2
2022/04/16 00:01:19;;;;;;;6.88;6.03;;;10.70;99.90;;;;;;5034794;28;20173;-71
2022/04/16 00:03:45;;;;;;;6.13;5.22;;;10.70;98.60;;;;;;5034621;28;20202;-71
2022/04/16 00:06:11;;;;;;;5.60;5.10;;;10.60;99.10;;;;;;5033603;28;20203;-71
2022/04/16 00:08:36;;;;;;;6.30;5.70;;;10.60;99.90;;;;;;5033263;28;20228;-71
2022/04/16 00:11:02;;;;;;;6.60;5.80;;;10.50;99.70;;;;;;5033470;28;20171;-71
2022/04/16 00:13:28;;;;;;;6.95;5.95;;;10.50;99.90;;;;;;5033182;28;20174;-71
2022/04/16 00:15:54;;;;;;;6.57;5.93;;;10.50;99.90;;;;;;5032907;28;20195;-71
2022/04/16 00:18:20;;;;;;;6.40;5.80;;;10.50;99.90;;;;;;5033771;28;20178;-71
2022/04/16 00:20:49;;;;;;;7.15;6.38;;;10.50;99.90;;;;;;5033271;28;20186;-71
2022/04/16 00:23:15;;;;;;;6.68;6.07;;;10.40;99.90;;;;;;5034094;28;20539;-71
2022/04/16 00:25:42;;;;;;;8.88;6.47;;;10.40;99.90;;;;;;5034699;28;20194;-71
2022/04/16 00:28:08;;;;;;;6.82;6.13;;;10.30;99.90;;;;;;5033378;28;20174;-71
2022/04/16 00:30:37;;;;;;;7.35;6.55;;;10.30;99.90;;;;;;5032989;28;20186;-71
2022/04/16 00:33:07;;;;;;;7.55;6.35;;;10.30;99.90;;;;;;5033983;28;20174;-69
2022/04/16 00:35:33;;;;;;;6.97;6.38;;;10.30;99.90;;;;;;5033749;28;20224;-69
2022/04/16 00:37:58;;;;;;;8.32;7.25;;;10.30;99.90;;;;;;5031674;28;20179;-70
2022/04/16 00:40:24;;;;;;;7.72;6.85;;;10.30;99.90;;;;;;5032562;28;20620;-70
2022/04/16 00:42:49;;;;;;;7.72;6.78;;;10.30;99.90;;;;;;5032855;28;20209;-70
2022/04/16 00:45:15;;;;;;;7.80;7.00;;;10.30;99.90;;;;;;5032505;28;20217;-70
2022/04/16 00:47:42;;;;;;;8.18;7.22;;;10.30;99.90;;;;;;5032797;28;20186;-69
2022/04/16 00:50:09;;;;;;;8.27;7.35;;;10.20;99.90;;;;;;5033765;28;20654;-69
2022/04/16 00:52:39;;;;;;;8.55;7.63;;;10.20;99.90;;;;;;5032301;28;20210;-69
2022/04/16 00:55:08;;;;;;;8.30;7.20;;;10.10;99.90;;;;;;5032686;28;20215;-69
2022/04/16 00:57:34;;;;;;;8.88;7.18;;;10.10;99.90;;;;;;5033224;28;20179;-69
2022/04/16 01:00:01;;;;;;;8.55;7.65;;;10.10;99.90;;;;;;5033282;28;20183;-69
2022/04/16 01:02:26;;;;;;;7.68;6.85;;;10.00;99.90;;;;;;5032581;28;20174;-69
2022/04/16 01:04:52;;;;;;;8.45;7.50;;;10.00;99.90;;;;;;5033670;28;20253;-71
2022/04/16 01:07:25;;;;;;;8.55;7.32;;;9.90;99.90;;;;;;5032540;28;20203;-71
2022/04/16 01:09:51;;;;;;;8.10;7.30;;;9.90;99.90;;;;;;5032426;28;20181;-71
2022/04/16 01:12:17;;;;;;;8.95;7.78;;;9.90;99.90;;;;;;5033792;28;20225;-71
2022/04/16 01:14:45;;;;;;;8.88;7.20;;;10.00;99.90;;;;;;5032233;28;20174;-71
2022/04/16 01:17:11;;;;;;;8.18;7.43;;;9.90;99.90;;;;;;5032322;28;20270;-71
2022/04/16 01:19:37;;;;;;;7.82;7.03;;;9.80;99.90;;;;;;5032244;28;20178;-71
2022/04/16 01:22:05;;;;;;;8.05;7.22;;;9.80;99.90;;;;;;5032251;28;20309;-71
2022/04/16 01:24:31;;;;;;;8.25;7.38;;;9.70;99.90;;;;;;5032323;28;20684;-71
2022/04/16 01:26:58;;;;;;;7.88;6.75;;;9.60;99.90;;;;;;5032358;28;20194;-71
2022/04/16 01:29:24;;;;;;;7.65;6.90;;;9.60;99.90;;;;;;5034161;28;20170;-71
2022/04/16 01:31:50;;;;;;;7.57;6.88;;;9.60;99.90;;;;;;5032803;28;20265;-71
2022/04/16 01:34:17;;;;;;;7.72;7.00;;;9.60;99.90;;;;;;5033965;28;20265;-71
2022/04/16 01:36:43;;;;;;;7.80;6.97;;;9.50;99.90;;;;;;5033854;28;20199;-69
2022/04/16 01:39:09;;;;;;;7.78;7.00;;;9.50;99.90;;;;;;5031977;28;20194;-69
2022/04/16 01:41:35;;;;;;;7.63;6.93;;;9.50;99.90;;;;;;5032929;28;20197;-69
2022/04/16 01:44:01;;;;;;;8.10;7.32;;;9.50;99.90;;;;;;5033141;28;20206;-69
2022/04/16 01:46:27;;;;;;;7.95;7.20;;;9.40;99.90;;;;;;5031831;28;20195;-70
2022/04/16 01:48:56;;;;;;;7.93;7.22;;;9.50;99.90;;;;;;5032992;28;20183;-70
2022/04/16 01:51:22;;;;;;;8.95;7.93;;;9.50;99.90;;;;;;5037236;28;20201;-71
2022/04/16 01:53:48;;;;;;;8.98;8.07;;;9.40;99.90;;;;;;5037259;28;20175;-71
2022/04/16 01:56:14;;;;;;;9.57;8.50;;;9.30;99.90;;;;;;5036755;28;20780;-71
2022/04/16 01:58:41;;;;;;;9.05;8.15;;;9.30;99.90;;;;;;5036392;28;20178;-71
2022/04/16 02:01:10;;;;;;;8.60;7.70;;;9.20;99.90;;;;;;5037186;28;20225;-71
2022/04/16 02:03:36;;;;;;;8.82;8.02;;;9.20;99.90;;;;;;5037306;28;20689;-70
2022/04/16 02:06:03;;;;;;;9.07;8.27;;;9.10;99.90;;;;;;5035856;28;20199;-70
2022/04/16 02:08:28;;;;;;;9.00;7.95;;;9.00;99.90;;;;;;5036526;28;20178;-70
2022/04/16 02:10:54;;;;;;;9.55;8.60;;;9.10;99.90;;;;;;5036115;28;20171;-69
2022/04/16 02:13:19;;;;;;;9.55;8.65;;;9.00;99.90;;;;;;5036704;28;20179;-71
2022/04/16 02:15:45;;;;;;;9.15;8.20;;;9.10;99.90;;;;;;5035854;28;20218;-71
2022/04/16 02:18:10;;;;;;;10.00;9.00;;;9.10;99.90;;;;;;5035732;28;20545;-71
2022/04/16 02:20:36;;;;;;;8.68;7.88;;;9.20;99.90;;;;;;5036505;28;20179;-71
2022/04/16 02:23:02;;;;;;;9.70;8.70;;;9.20;99.90;;;;;;5036114;28;20240;-70
2022/04/16 02:25:27;;;;;;;8.95;8.20;;;9.20;99.90;;;;;;5035177;28;20256;-70
2022/04/16 02:27:53;;;;;;;8.75;7.95;;;9.20;99.90;;;;;;5035589;28;20179;-70
2022/04/16 02:30:19;;;;;;;9.20;8.30;;;9.20;99.90;;;;;;5035271;28;20175;-70
2022/04/16 02:32:47;;;;;;;8.57;7.78;;;9.30;99.90;;;;;;5035672;28;20244;-70
2022/04/16 02:35:14;;;;;;;9.10;8.20;;;9.30;99.90;;;;;;5035002;28;20202;-69
2022/04/16 02:37:40;;;;;;;9.15;8.25;;;9.40;99.90;;;;;;5035719;28;20179;-69
2022/04/16 02:40:06;;;;;;;9.40;8.40;;;9.30;99.90;;;;;;5035110;28;20262;-69
2022/04/16 02:42:36;;;;;;;9.23;8.32;;;9.30;99.90;;;;;;5034762;28;20185;-69
2022/04/16 02:47:47;;;;;;;8.90;8.07;;;9.40;99.90;;;;;;5036315;28;20170;-69
2022/04/16 02:50:13;;;;;;;8.90;8.00;;;9.30;99.90;;;;;;5035377;28;20183;-70
2022/04/16 02:52:48;;;;;;;8.95;8.05;;;9.30;99.90;;;;;;5035581;28;20174;-70
2022/04/16 02:55:17;;;;;;;8.70;7.80;;;9.30;99.90;;;;;;5037791;28;20194;-70
2022/04/16 02:57:46;;;;;;;9.02;8.13;;;9.40;99.90;;;;;;5035132;28;20266;-71
2022/04/16 03:00:13;;;;;;;9.65;8.75;;;9.40;99.90;;;;;;5033809;28;20210;-71
2022/04/16 03:02:39;;;;;;;9.30;8.40;;;9.40;99.90;;;;;;5034897;28;20214;-71
2022/04/16 03:05:08;;;;;;;9.35;8.45;;;9.40;99.90;;;;;;5034419;28;20676;-70
2022/04/16 03:07:35;;;;;;;10.38;8.40;;;9.50;99.90;;;;;;5035669;28;20179;-70
2022/04/16 03:10:05;;;;;;;9.02;8.15;;;9.50;99.90;;;;;;5034715;28;20646;-70
2022/04/16 03:12:49;;;;;;;9.15;8.25;;;9.50;99.90;;;;;;5034442;28;20273;-70
2022/04/16 03:18:00;;;;;;;9.13;8.23;;;9.40;99.90;;;;;;5036053;28;20534;-70
2022/04/16 03:20:27;;;;;;;10.73;8.32;;;9.30;99.90;;;;;;5035436;28;20183;-69
2022/04/16 03:22:53;;;;;;;9.70;8.73;;;9.30;99.90;;;;;;5034149;28;20228;-72
2022/04/16 03:25:19;;;;;;;10.23;8.60;;;9.30;99.90;;;;;;5034340;28;20305;-71
2022/04/16 03:27:45;;;;;;;9.10;8.20;;;9.30;99.90;;;;;;5035183;28;20653;-71
2022/04/16 03:30:11;;;;;;;9.07;8.18;;;9.40;99.90;;;;;;5034227;28;20660;-71
2022/04/16 03:32:40;;;;;;;9.35;8.32;;;9.40;99.90;;;;;;5035277;28;20175;-71
2022/04/16 03:35:07;;;;;;;9.88;8.30;;;9.40;99.90;;;;;;5035240;28;20195;-71
2022/04/16 03:37:37;;;;;;;9.20;7.88;;;9.30;99.90;;;;;;5035450;28;20178;-69
2022/04/16 03:40:44;;;;;;;9.50;8.50;;;9.30;99.90;;;;;;5034367;28;20229;-69
2022/04/16 03:43:10;;;;;;;9.85;8.15;;;9.30;99.90;;;;;;5034906;28;20185;-69
2022/04/16 03:45:36;;;;;;;9.32;8.32;;;9.20;99.90;;;;;;5034169;28;20211;-69
2022/04/16 03:48:05;;;;;;;9.90;7.95;;;9.00;99.90;;;;;;5033619;28;20175;-69
2022/04/16 03:50:32;;;;;;;8.95;7.97;;;9.10;99.90;;;;;;5034656;28;20209;-71
2022/04/16 03:52:58;;;;;;;8.15;7.35;;;9.10;99.90;;;;;;5033792;28;20601;-69
2022/04/16 04:00:59;;;;;;;8.00;7.18;;;8.90;99.90;;;;;;5035214;28;20310;-70
2022/04/16 04:03:25;;;;;;;9.07;7.38;;;8.90;99.90;;;;;;5034464;28;20225;-69
2022/04/16 04:05:53;;;;;;;7.82;7.10;;;8.90;99.90;;;;;;5033296;28;20195;-70
2022/04/16 04:08:20;;;;;;;7.72;7.00;;;8.90;99.90;;;;;;5033306;28;20182;-70
2022/04/16 04:10:46;;;;;;;8.95;7.22;;;8.80;99.90;;;;;;5033664;28;20175;-70
2022/04/16 04:13:16;;;;;;;8.32;7.20;;;8.80;99.90;;;;;;5033247;28;20237;-70
2022/04/16 04:15:42;;;;;;;8.02;7.22;;;8.70;99.90;;;;;;5033085;28;20225;-70
2022/04/16 04:18:07;;;;;;;9.23;7.00;;;8.70;99.90;;;;;;5034292;28;20229;-70
2022/04/16 04:20:35;;;;;;;7.90;7.10;;;8.60;99.90;;;;;;5034232;28;20178;-70
2022/04/16 04:23:04;;;;;;;8.10;6.97;;;8.60;99.90;;;;;;5035022;28;20205;-70
2022/04/16 04:25:30;;;;;;;9.20;7.22;;;8.60;99.90;;;;;;5033116;28;20588;-71
2022/04/16 04:27:56;;;;;;;6.97;6.30;;;8.60;99.90;;;;;;5033697;28;20179;-71
2022/04/16 04:30:21;;;;;;;8.20;6.90;;;8.60;99.90;;;;;;5034273;28;20203;-69
2022/04/16 04:32:47;;;;;;;9.48;6.72;;;8.60;99.90;;;;;;5034229;28;20174;-68
2022/04/16 04:35:13;;;;;;;7.38;6.68;;;8.50;99.90;;;;;;5032627;28;20248;-69
2022/04/16 04:37:38;;;;;;;7.57;6.70;;;8.50;99.90;;;;;;5032652;28;20179;-69
2022/04/16 04:40:05;;;;;;;7.75;6.80;;;8.40;99.90;;;;;;5033819;28;20689;-68
2022/04/16 04:42:32;;;;;;;7.18;6.20;;;8.40;99.90;;;;;;5033003;28;20183;-68
2022/04/16 04:44:58;;;;;;;10.15;6.78;;;8.50;99.90;;;;;;5033985;28;20261;-71
2022/04/16 04:47:24;;;;;;;7.43;6.53;;;8.40;99.90;;;;;;5034063;28;20182;-69
2022/04/16 04:49:50;;;;;;;13.15;11.45;;;8.40;99.90;;;;;;5032530;28;20198;-69
2022/04/16 04:52:29;;;;;;;8.40;6.57;;;8.40;99.90;;;;;;5033681;28;20175;-69
2022/04/16 04:54:59;;;;;;;6.85;6.20;;;8.50;99.90;;;;;;5032412;28;20232;-69
2022/04/16 04:57:26;;;;;;;7.35;6.65;;;8.50;99.90;;;;;;5033827;28;20183;-69
2022/04/16 04:59:52;;;;;;;6.50;5.80;;;8.50;99.90;;;;;;5032332;28;20191;-68
2022/04/16 05:02:17;;;;;;;6.75;6.10;;;8.40;99.90;;;;;;5033565;28;20181;-70
2022/04/16 05:04:43;;;;;;;7.25;5.88;;;8.40;99.90;;;;;;5032314;28;20233;-70
2022/04/16 05:07:09;;;;;;;7.25;6.20;;;8.50;99.90;;;;;;5033754;28;20195;-70
2022/04/16 05:09:36;;;;;;;6.05;5.47;;;8.50;99.90;;;;;;5033521;28;20174;-70
2022/04/16 05:12:02;;;;;;;6.10;5.50;;;8.50;99.90;;;;;;5032351;28;20557;-68
2022/04/16 05:14:28;;;;;;;7.25;5.50;;;8.60;99.90;;;;;;5033030;28;20213;-68
2022/04/16 05:16:53;;;;;;;6.05;5.35;;;8.70;99.90;;;;;;5032163;28;20234;-68
2022/04/16 05:19:19;;;;;;;6.32;5.60;;;8.70;99.90;;;;;;5032132;28;20206;-68
2022/04/16 05:21:44;;;;;;;6.40;4.95;;;8.70;99.90;;;;;;5033356;28;20175;-69
2022/04/16 05:24:10;;;;;;;7.28;5.68;;;8.70;98.90;;;;;;5034123;28;20194;-68
2022/04/16 05:26:38;;;;;;;7.07;5.75;;;8.60;99.90;;;;;;5036514;28;20199;-68
2022/04/16 05:29:04;;;;;;;5.72;5.05;;;8.60;98.90;;;;;;5036497;28;20170;-71
2022/04/16 05:31:30;;;;;;;5.60;5.10;;;8.60;99.00;;;;;;5037800;28;20186;-71
2022/04/16 05:36:41;;;;;;;6.00;5.40;;;8.50;98.30;;;;;;5037735;28;20209;-69
2022/04/16 05:39:07;;;;;;;5.68;5.07;;;8.50;98.10;;;;;;5036289;28;20183;-69
2022/04/16 05:41:33;;;;;;;5.88;5.20;;;8.60;97.90;;;;;;5036256;28;20185;-68
2022/04/16 05:43:59;;;;;;;6.60;5.10;;;8.60;97.80;;;;;;5036749;28;20202;-68
2022/04/16 05:46:25;;;;;;;5.70;5.05;;;8.70;96.70;;;;;;5035987;28;20202;-70
2022/04/16 05:48:50;;;;;;;6.10;5.50;;;8.70;96.60;;;;;;5035918;28;20183;-70
2022/04/16 05:51:17;;;;;;;6.15;5.28;;;8.60;96.50;;;;;;5037752;28;20343;-70
2022/04/16 05:53:42;;;;;;;5.60;5.00;;;8.60;96.70;;;;;;5035977;28;20222;-70
2022/04/16 05:56:09;;;;;;;5.93;5.25;;;8.60;96.40;;;;;;5035853;28;20203;-70
2022/04/16 05:58:36;;;;;;;5.93;5.03;;;8.70;96.60;;;;;;5035632;28;20206;-70
2022/04/16 06:01:02;;;;;;;5.47;4.85;;;8.60;96.10;;;;;;5036536;28;20186;-70
2022/04/16 06:03:29;;;;;;;6.75;5.10;;;8.70;95.80;;;;;;5036223;28;20266;-71
2022/04/16 06:05:55;;;;;;;6.32;5.63;;;8.70;96.00;;;;;;5037381;28;20199;-71
2022/04/16 06:08:20;;;;;;;5.30;4.80;;;8.70;95.90;;;;;;5037371;28;20163;-70
2022/04/16 06:10:46;;;;;;;5.63;4.97;;;8.70;95.00;;;;;;5035829;28;20760;-70
2022/04/16 06:13:12;;;;;;;5.22;4.50;;;8.70;95.30;;;;;;5036211;28;20186;-70
2022/04/16 06:15:41;;;;;;;5.78;5.10;;;8.80;94.70;;;;;;5035316;28;20202;-70
2022/04/16 06:18:08;;;;;;;6.80;4.75;;;8.80;94.10;;;;;;5035529;28;20175;-70
2022/04/16 06:20:34;;;;;;;5.80;5.20;;;8.90;93.70;;;;;;5036428;28;20658;-70
2022/04/16 06:22:59;;;;;;;5.13;4.53;;;8.80;93.50;;;;;;5035532;28;20185;-68
2022/04/16 06:25:25;;;;;;;5.95;4.57;;;8.90;93.60;;;;;;5036971;28;20218;-68
2022/04/16 06:27:50;;;;;;;5.20;4.45;;;9.00;93.00;;;;;;5035366;28;20182;-68
2022/04/16 06:30:24;;;;;;;4.93;4.43;;;9.00;92.00;;;;;;5035145;28;20183;-68
2022/04/16 06:32:50;;;;;;;6.80;4.85;;;8.70;92.20;;;;;;5035739;28;20182;-69
2022/04/16 06:35:16;;;;;;;5.53;4.95;;;8.70;92.00;;;;;;5035743;28;20199;-68
2022/04/16 06:37:43;;;;;;;5.55;5.00;;;8.60;92.50;;;;;;5035022;28;20274;-68
2022/04/16 06:40:10;;;;;;;5.55;4.57;;;8.60;92.90;;;;;;5035647;28;20191;-72
2022/04/16 06:42:37;;;;;;;6.22;5.25;;;8.80;92.00;;;;;;5035210;28;20182;-71
2022/04/16 06:45:05;;;;;;;5.40;4.90;;;9.00;91.70;;;;;;5034813;28;20203;-70
2022/04/16 06:47:31;;;;;;;5.18;4.68;;;9.10;90.10;;;;;;5035241;28;20225;-71
2022/04/16 06:49:57;;;;;;;6.60;4.53;;;8.90;89.20;;;;;;5034651;28;20190;-71
2022/04/16 06:52:23;;;;;;;7.95;7.13;;;8.90;89.60;;;;;;5034691;28;20275;-71
2022/04/16 06:54:49;;;;;;;6.32;5.70;;;8.90;88.90;;;;;;5035944;28;20269;-72
2022/04/16 06:57:14;;;;;;;6.20;5.60;;;9.10;88.90;;;;;;5034892;28;20281;-70
2022/04/16 06:59:40;;;;;;;5.22;4.63;;;9.20;88.80;;;;;;5034832;28;20179;-70
2022/04/16 07:02:08;;;;;;;4.95;4.50;;;9.50;87.60;;;;;;5034483;28;20183;-70
2022/04/16 07:04:34;;;;;;;4.88;4.30;;;9.80;85.60;;;;;;5034702;28;20198;-70
2022/04/16 07:06:59;;;;;;;4.78;4.28;;;9.90;83.90;;;;;;5034403;28;20206;-70
2022/04/16 07:09:38;;;;;;;4.25;3.88;;;9.90;82.30;;;;;;5035520;28;20171;-70
2022/04/16 07:12:05;;;;;;;5.32;3.95;;;10.10;81.50;;;;;;5034479;28;20167;-71
2022/04/16 07:14:31;;;;;;;4.63;4.18;;;10.20;78.80;;;;;;5035512;28;20174;-71
2022/04/16 07:16:57;;;;;;;5.03;4.40;;;9.80;79.80;;;;;;5035879;28;20724;-71
2022/04/16 07:19:22;;;;;;;4.00;3.60;;;9.80;80.40;;;;;;5035926;28;20179;-69
2022/04/16 07:21:48;;;;;;;4.60;4.20;;;9.80;80.30;;;;;;5035218;28;20190;-69
2022/04/16 07:24:13;;;;;;;4.80;4.30;;;9.80;79.00;;;;;;5035700;28;20206;-72
2022/04/16 07:26:39;;;;;;;4.80;4.25;;;9.80;78.80;;;;;;5034600;28;20197;-71
2022/04/16 07:29:04;;;;;;;4.35;3.90;;;9.70;79.60;;;;;;5034120;28;20197;-71
2022/04/16 07:31:30;;;;;;;4.10;3.60;;;9.70;80.10;;;;;;5035033;28;20179;-72
2022/04/16 07:33:55;;;;;;;5.43;4.13;;;9.90;79.60;;;;;;5034579;28;20179;-70
2022/04/16 07:36:21;;;;;;;4.70;3.70;;;9.90;76.90;;;;;;5033871;28;20195;-68
2022/04/16 07:38:46;;;;;;;3.88;3.58;;;9.60;76.40;;;;;;5035093;28;20179;-68
2022/04/16 07:41:12;;;;;;;4.22;3.83;;;9.20;77.40;;;;;;5035441;28;20175;-68
2022/04/16 07:43:37;;;;;;;4.72;3.80;;;8.90;78.70;;;;;;5034863;28;20190;-68
2022/04/16 07:46:03;;;;;;;3.85;3.47;;;8.80;79.30;;;;;;5033816;28;20249;-68
2022/04/16 07:48:29;;;;;;;4.03;3.20;;;8.60;80.40;;;;;;5033599;28;20208;-68
2022/04/16 07:50:54;;;;;;;4.10;3.70;;;8.60;81.70;;;;;;5033477;28;20186;-71
2022/04/16 07:53:20;;;;;;;3.80;3.50;;;8.60;81.30;;;;;;5034441;28;20181;-69
2022/04/16 07:55:46;;;;;;;4.22;3.50;;;8.60;79.20;;;;;;5033470;28;20198;-69
2022/04/16 07:58:13;;;;;;;4.32;3.28;;;8.50;79.40;;;;;;5033504;28;20680;-68
2022/04/16 08:00:39;;;;;;;3.05;2.78;;;8.30;80.30;;;;;;5033479;28;20618;-68
2022/04/16 08:03:05;;;;;;;3.50;3.10;;;8.40;79.10;;;;;;5034817;28;20182;-69
2022/04/16 08:05:31;;;;;;;3.10;2.88;;;8.60;79.60;;;;;;5032535;28;20206;-70
2022/04/16 08:07:57;;;;;;;3.60;3.10;;;8.90;78.00;;;;;;5033269;28;20225;-70
2022/04/16 08:10:23;;;;;;;4.07;2.50;;;9.00;75.70;;;;;;5033602;28;20175;-70
2022/04/16 08:12:48;;;;;;;2.83;2.50;;;9.00;75.00;;;;;;5033199;28;20229;-69
2022/04/16 08:15:14;;;;;;;2.42;2.22;;;9.00;73.10;;;;;;5034243;28;20198;-69
2022/04/16 08:17:40;;;;;;;2.90;2.30;;;9.20;71.70;;;;;;5034960;28;20167;-70
2022/04/16 08:20:06;;;;;;;4.53;2.40;;;9.40;72.30;;;;;;5033097;28;20664;-69
2022/04/16 08:22:34;;;;;;;2.95;2.50;;;9.50;69.30;;;;;;5034427;28;20240;-71
2022/04/16 08:27:51;;;;;;;2.60;2.28;;;9.60;69.20;;;;;;5034538;28;20212;-70
2022/04/16 08:30:17;;;;;;;2.67;1.90;;;9.80;68.30;;;;;;5034811;28;20178;-71
2022/04/16 08:32:44;;;;;;;1.98;1.73;;;10.10;65.50;;;;;;5034569;28;20194;-71
2022/04/16 08:35:11;;;;;;;2.85;2.03;;;10.30;63.80;;;;;;5033573;28;20262;-69
2022/04/16 08:37:37;;;;;;;1.85;1.75;;;10.40;60.40;;;;;;5034294;28;20571;-70
2022/04/16 08:40:04;;;;;;;1.85;1.70;;;10.20;53.20;;;;;;5033550;28;20186;-71
2022/04/16 08:42:32;;;;;;;2.03;1.50;;;10.00;49.80;;;;;;5033469;28;20179;-71
2022/04/16 08:44:58;;;;;;;1.40;1.30;;;9.80;51.50;;;;;;5033748;28;20198;-71
2022/04/16 08:47:24;;;;;;;3.60;1.40;;;9.80;52.60;;;;;;5034460;28;20228;-71
2022/04/16 08:49:49;;;;;;;1.65;1.40;;;9.80;54.00;;;;;;5034540;28;20186;-71
2022/04/16 08:52:16;;;;;;;1.42;1.33;;;9.90;52.30;;;;;;5033388;28;20177;-75
2022/04/16 08:54:42;;;;;;;1.73;1.33;;;9.80;52.80;;;;;;5034276;28;20187;-72
2022/04/16 08:57:08;;;;;;;1.65;1.42;;;9.80;53.20;;;;;;5033168;28;20259;-71
2022/04/16 08:59:33;;;;;;;1.40;1.30;;;9.90;53.50;;;;;;5033221;28;20163;-71
2022/04/16 09:01:59;;;;;;;1.73;1.50;;;10.10;52.90;;;;;;5033637;28;20175;-70
2022/04/16 09:04:31;;;;;;;1.20;1.20;;;10.10;51.80;;;;;;5032268;28;20207;-76
2022/04/16 09:06:57;;;;;;;2.08;1.70;;;9.80;52.00;;;;;;5033784;28;20200;-70
2022/04/16 09:09:23;;;;;;;1.90;1.50;;;10.10;53.40;;;;;;5033133;28;20252;-70
2022/04/16 09:11:49;;;;;;;1.50;1.40;;;10.20;52.30;;;;;;5032225;28;20202;-70
2022/04/16 09:14:15;;;;;;;2.63;1.90;;;10.10;50.80;;;;;;5032244;28;20184;-70
2022/04/16 09:16:42;;;;;;;1.33;1.33;;;10.00;50.00;;;;;;5033469;28;20218;-71
2022/04/16 09:19:12;;;;;;;1.67;1.40;;;10.20;53.20;;;;;;5033725;28;20175;-68
2022/04/16 09:21:39;;;;;;;1.67;1.45;;;10.30;53.40;;;;;;5032826;28;20541;-69
2022/04/16 09:24:04;;;;;;;3.90;3.60;;;10.50;53.20;;;;;;5032851;28;20285;-70
2022/04/16 09:26:32;;;;;;;2.25;1.40;;;10.50;49.10;;;;;;5033271;28;20217;-69
2022/04/16 09:29:14;;;;;;;3.55;1.60;;;10.50;51.70;;;;;;5033505;28;20179;-69
2022/04/16 09:31:43;;;;;;;3.33;1.50;;;10.80;52.20;;;;;;5032037;28;20529;-70
2022/04/16 09:34:17;;;;;;;1.42;1.33;;;10.80;50.80;;;;;;5033976;28;20183;-70
2022/04/16 09:36:45;;;;;;;1.45;1.30;;;10.90;51.10;;;;;;5032315;28;20226;-71
2022/04/16 09:39:11;;;;;;;2.13;1.30;;;10.80;46.00;;;;;;5032336;28;20171;-71
2022/04/16 09:41:38;;;;;;;1.98;1.30;;;10.60;44.10;;;;;;5032720;28;20525;-71
2022/04/16 09:44:15;;;;;;;1.60;1.50;;;10.60;46.40;;;;;;5033172;28;20194;-72
2022/04/16 09:46:44;;;;;;;2.17;1.83;;;10.60;45.90;;;;;;5033467;28;20190;-71
2022/04/16 09:49:12;;;;;;;3.58;1.67;;;10.50;44.70;;;;;;5033382;28;20191;-69
2022/04/16 09:51:40;;;;;;;1.30;1.15;;;10.30;48.10;;;;;;5033169;28;20171;-71
2022/04/16 09:54:07;;;;;;;1.25;1.15;;;10.60;47.40;;;;;;5032063;28;20186;-72
2022/04/16 09:56:38;;;;;;;1.50;1.40;;;10.80;46.10;;;;;;5032191;28;20732;-71
2022/04/16 09:59:08;;;;;;;1.15;1.15;;;10.80;45.50;;;;;;5032659;28;20221;-69
2022/04/16 10:01:38;;;;;;;1.40;1.30;;;10.70;45.20;;;;;;5031958;28;20254;-71
2022/04/16 10:04:03;;;;;;;2.80;1.50;;;10.80;46.80;;;;;;5031916;28;20206;-70
2022/04/16 10:06:30;;;;;;;2.47;1.50;;;10.90;45.30;;;;;;5033189;28;20602;-71
2022/04/16 10:08:57;;;;;;;2.70;1.50;;;10.80;45.80;;;;;;5033244;28;20262;-70
2022/04/16 10:14:22;;;;;;;2.28;1.38;;;11.10;46.40;;;;;;5037584;28;20194;-73
2022/04/16 10:17:20;;;;;;;2.08;1.40;;;11.10;47.30;;;;;;5035414;28;20194;-71
2022/04/16 10:19:46;;;;;;;5.47;2.00;;;11.00;45.40;;;;;;5035652;28;20208;-70
2022/04/16 10:22:24;;;;;;;1.48;1.38;;;10.90;46.40;;;;;;5037310;28;20245;-71
2022/04/16 10:24:58;;;;;;;7.15;2.75;;;10.90;45.40;;;;;;5036630;28;20194;-72
2022/04/16 10:27:29;;;;;;;3.47;1.70;;;10.90;46.10;;;;;;5035993;28;20228;-72
2022/04/16 10:30:09;;;;;;;2.08;1.70;;;11.00;45.40;;;;;;5037406;28;20175;-72
2022/04/16 10:32:45;;;;;;;2.50;1.58;;;10.80;47.60;;;;;;5036503;28;20167;-69
2022/04/16 10:35:14;;;;;;;2.08;1.40;;;11.20;49.60;;;;;;5036784;28;20739;-71
2022/04/16 10:37:41;;;;;;;4.78;1.65;;;11.50;48.90;;;;;;5036967;28;20182;-72
2022/04/16 10:40:24;;;;;;;2.15;1.38;;;11.50;45.70;;;;;;5035396;28;20175;-71
2022/04/16 10:42:51;;;;;;;2.83;2.50;;;11.50;44.10;;;;;;5034882;28;20179;-71
2022/04/16 10:45:17;;;;;;;1.67;1.50;;;11.40;43.10;;;;;;5034639;28;20210;-71
2022/04/16 10:47:43;;;;;;;1.70;1.60;;;11.20;44.30;;;;;;5037025;28;20258;-72
2022/04/16 10:50:15;;;;;;;2.47;1.60;;;11.30;45.30;;;;;;5036415;28;20293;-72
2022/04/16 10:52:51;;;;;;;1.63;1.52;;;11.30;42.90;;;;;;5035786;28;20174;-72
2022/04/16 10:55:16;;;;;;;1.67;1.58;;;11.30;44.40;;;;;;5035071;28;20198;-72
2022/04/16 10:57:42;;;;;;;4.65;2.38;;;11.50;46.20;;;;;;5035950;28;20179;-73
2022/04/16 11:00:12;;;;;;;2.17;1.98;;;11.30;43.80;;;;;;5035861;28;20206;-73
2022/04/16 11:02:39;;;;;;;1.80;1.70;;;11.20;44.70;;;;;;5035951;28;20543;-72
2022/04/16 11:05:09;;;;;;;2.05;1.88;;;11.30;45.00;;;;;;5035843;28;20209;-70
2022/04/16 11:07:39;;;;;;;2.45;2.13;;;11.20;44.60;;;;;;5034663;28;20183;-68
2022/04/16 11:10:07;;;;;;;2.72;2.00;;;11.40;46.10;;;;;;5034412;28;20182;-69
2022/04/16 11:12:32;;;;;;;2.40;2.05;;;11.50;44.40;;;;;;5035386;28;20188;-69
2022/04/16 11:14:59;;;;;;;2.08;1.98;;;11.40;43.70;;;;;;5034535;28;20178;-69
2022/04/16 11:17:25;;;;;;;2.38;1.88;;;11.50;44.30;;;;;;5036272;28;20244;-68
2022/04/16 11:20:04;;;;;;;2.50;2.30;;;11.40;42.20;;;;;;5034130;28;20214;-68
2022/04/16 11:22:30;;;;;;;2.15;1.95;;;11.50;42.10;;;;;;5033251;28;20183;-70
2022/04/16 11:24:58;;;;;;;3.67;2.20;;;11.40;41.40;;;;;;5034293;28;20225;-69
2022/04/16 11:36:06;;;;;;;2.45;2.20;;;11.10;40.60;;;;;;5035440;28;20202;-71
2022/04/16 11:38:34;;;;;;;2.75;2.00;;;11.20;41.00;;;;;;5034214;28;20205;-69
2022/04/16 11:41:01;;;;;;;1.95;1.85;;;11.30;40.70;;;;;;5035066;28;20255;-71
2022/04/16 11:43:30;;;;;;;2.50;2.30;;;11.40;41.00;;;;;;5034095;28;20179;-71
2022/04/16 11:45:57;;;;;;;2.58;2.38;;;11.50;40.00;;;;;;5033849;28;20217;-72
2022/04/16 11:48:30;;;;;;;5.13;2.65;;;11.50;40.00;;;;;;5033642;28;20560;-70
2022/04/16 11:50:56;;;;;;;2.28;1.73;;;11.60;40.60;;;;;;5033593;28;20190;-70
2022/04/16 11:54:05;;;;;;;1.98;1.88;;;11.60;38.70;;;;;;5033892;28;20634;-72
2022/04/16 11:56:31;;;;;;;2.38;2.17;;;11.70;39.90;;;;;;5033951;28;20206;-71
2022/04/16 11:58:56;;;;;;;3.60;2.15;;;11.70;38.90;;;;;;5033714;28;20184;-70
2022/04/16 12:01:23;;;;;;;2.30;2.20;;;11.80;39.40;;;;;;5033392;28;20588;-70
2022/04/16 12:03:51;;;;;;;2.00;1.90;;;11.60;38.60;;;;;;5033506;28;20183;-70
2022/04/16 12:06:19;;;;;;;2.95;2.28;;;11.80;39.20;;;;;;5033228;28;20206;-69
2022/04/16 12:11:58;;;;;;;3.78;2.47;;;12.00;38.70;;;;;;5034930;28;20159;-69
2022/04/16 12:14:24;;;;;;;2.28;2.17;;;11.90;36.40;;;;;;5033147;28;20600;-69
2022/04/16 12:17:00;;;;;;;2.50;2.30;;;11.80;37.60;;;;;;5034784;28;20234;-69
2022/04/16 12:19:35;;;;;;;5.13;2.53;;;11.90;37.90;;;;;;5033565;28;20240;-70
2022/04/16 12:22:01;;;;;;;2.33;2.13;;;11.90;39.20;;;;;;5032983;28;20179;-70
2022/04/16 12:24:28;;;;;;;3.80;2.00;;;12.00;38.00;;;;;;5032782;28;20260;-70
2022/04/16 12:26:55;;;;;;;2.92;2.60;;;11.90;37.10;;;;;;5033077;28;20206;-73
2022/04/16 12:29:31;;;;;;;4.20;2.60;;;11.90;38.00;;;;;;5033125;28;20179;-73
2022/04/16 12:31:58;;;;;;;2.47;2.20;;;11.70;38.60;;;;;;5034012;28;20178;-73
2022/04/16 12:34:25;;;;;;;3.53;2.80;;;11.80;40.40;;;;;;5032626;28;20190;-70
2022/04/16 12:36:51;;;;;;;2.47;2.28;;;11.80;38.90;;;;;;5034149;28;20199;-70
2022/04/16 12:39:17;;;;;;;2.15;1.88;;;11.90;39.70;;;;;;5032808;28;20182;-70
2022/04/16 12:41:42;;;;;;;2.05;1.77;;;12.20;39.30;;;;;;5033759;28;20186;-70
2022/04/16 12:44:08;;;;;;;4.65;2.25;;;12.30;40.80;;;;;;5033437;28;20599;-70
2022/04/16 12:46:33;;;;;;;2.70;2.50;;;12.40;40.80;;;;;;5032591;28;20201;-71
2022/04/16 12:48:59;;;;;;;2.38;2.22;;;12.30;40.30;;;;;;5032278;28;20217;-71
2022/04/16 12:51:26;;;;;;;2.60;2.40;;;12.40;41.10;;;;;;5032340;28;20293;-72
2022/04/16 12:53:52;;;;;;;2.42;2.22;;;12.40;40.30;;;;;;5034331;28;20159;-70
2022/04/16 12:56:17;;;;;;;3.70;2.20;;;12.40;40.30;;;;;;5033920;28;20331;-71
2022/04/16 12:58:43;;;;;;;2.83;2.42;;;12.30;40.10;;;;;;5034362;28;20206;-71
2022/04/16 13:01:09;;;;;;;2.88;2.20;;;12.20;41.20;;;;;;5033933;28;20214;-69
2022/04/16 13:03:35;;;;;;;2.40;2.30;;;12.20;41.20;;;;;;5032603;28;20175;-69
2022/04/16 13:06:02;;;;;;;2.17;1.98;;;12.30;41.10;;;;;;5033174;28;20218;-70
2022/04/16 13:08:30;;;;;;;5.90;2.60;;;12.50;40.90;;;;;;5034821;28;20637;-69
2022/04/16 13:10:56;;;;;;;2.13;2.03;;;12.30;40.70;;;;;;5032214;28;20236;-70
2022/04/16 13:13:22;;;;;;;3.53;2.08;;;12.20;41.60;;;;;;5032489;28;20175;-71
2022/04/16 13:15:48;;;;;;;2.40;2.20;;;12.20;42.50;;;;;;5033324;28;20202;-71
2022/04/16 13:18:14;;;;;;;2.20;2.00;;;12.20;40.80;;;;;;5032330;28;20623;-70
2022/04/16 13:20:39;;;;;;;3.38;2.65;;;12.30;41.30;;;;;;5033996;28;20194;-70
2022/04/16 13:23:05;;;;;;;3.63;2.40;;;12.10;39.90;;;;;;5032726;28;20187;-71
2022/04/16 13:25:33;;;;;;;1.90;1.80;;;12.20;40.00;;;;;;5032723;28;20213;-70